Time;durP1;ratioP1;P1;durP2;ratioP2;P2;SDS_P1;SDS_P2;PMS_P1;PMS_P2;Temp;Humidity;BMP_temperature;BMP_pressure;BME280_temperature;BME280_humidity;BME280_pressure;Samples;Min_cycle;Max_cycle;Signal;HPM_P1;HPM_P2
2022/05/17 00:01:29;;;;;;;14.85;4.25;;;;;;;16.10;75.14;101859.44;4979373;28;20059;-35
2022/05/17 00:03:55;;;;;;;16.80;3.92;;;;;;;16.09;75.12;101869.47;4996380;28;20045;-35
2022/05/17 00:06:20;;;;;;;12.65;3.47;;;;;;;16.11;75.07;101871.97;4979326;28;20051;-36
2022/05/17 00:08:46;;;;;;;10.70;2.80;;;;;;;16.11;74.98;101880.97;4996094;28;20030;-36
2022/05/17 00:11:11;;;;;;;5.10;2.10;;;;;;;16.08;75.15;101867.78;4995819;28;20034;-36
2022/05/17 00:13:37;;;;;;;11.43;2.15;;;;;;;16.07;75.03;101878.84;4995517;28;20035;-35
2022/05/17 00:16:02;;;;;;;5.68;1.90;;;;;;;16.05;75.25;101884.47;4995406;28;20019;-37
2022/05/17 00:18:29;;;;;;;10.35;1.90;;;;;;;16.04;75.11;101882.78;4995457;28;20088;-35
2022/05/17 00:20:54;;;;;;;6.68;1.70;;;;;;;16.01;75.27;101873.16;4995537;28;20023;-34
2022/05/17 00:23:20;;;;;;;7.70;2.38;;;;;;;16.01;75.29;101884.03;4978654;28;20078;-34
2022/05/17 00:25:47;;;;;;;12.88;2.17;;;;;;;16.01;75.37;101889.44;4995891;28;20042;-35
2022/05/17 00:28:16;;;;;;;5.97;1.63;;;;;;;16.00;75.26;101886.91;4995423;28;20034;-36
2022/05/17 00:30:42;;;;;;;7.32;1.73;;;;;;;15.97;75.44;101874.56;4996022;28;20042;-35
2022/05/17 00:33:08;;;;;;;8.32;1.88;;;;;;;15.95;75.34;101878.50;4999923;28;20038;-35
2022/05/17 00:35:33;;;;;;;7.72;1.70;;;;;;;15.93;75.37;101870.56;5000093;28;20070;-36
2022/05/17 00:37:59;;;;;;;5.90;2.05;;;;;;;15.91;75.55;101872.63;4999174;28;20027;-35
2022/05/17 00:40:24;;;;;;;6.65;1.83;;;;;;;15.90;75.73;101880.94;4998221;28;20065;-36
2022/05/17 00:42:49;;;;;;;6.68;2.28;;;;;;;15.88;75.92;101883.88;4999046;28;20026;-36
2022/05/17 00:45:15;;;;;;;10.10;2.20;;;;;;;15.86;75.89;101885.09;4998621;28;20039;-35
2022/05/17 00:47:41;;;;;;;11.90;2.92;;;;;;;15.83;75.97;101875.47;4999273;28;20027;-34
2022/05/17 00:50:12;;;;;;;7.90;2.58;;;;;;;15.82;75.90;101873.75;4982864;28;20031;-36
2022/05/17 00:52:46;;;;;;;13.18;2.55;;;;;;;15.80;76.27;101881.28;5000188;28;20019;-35
2022/05/17 00:55:16;;;;;;;7.30;2.30;;;;;;;15.78;76.15;101872.47;4982676;28;20070;-36
2022/05/17 00:57:57;;;;;;;8.82;2.20;;;;;;;15.78;76.23;101877.91;4983020;28;20023;-35
2022/05/17 01:00:24;;;;;;;10.57;2.70;;;;;;;15.76;76.36;101877.25;4999358;28;20018;-38
2022/05/17 01:02:53;;;;;;;10.70;2.33;;;;;;;15.75;76.68;101883.72;4981725;28;20051;-35
2022/05/17 01:05:20;;;;;;;6.20;2.08;;;;;;;15.72;76.62;101890.38;4998681;28;20023;-36
2022/05/17 01:07:50;;;;;;;11.50;2.60;;;;;;;15.69;76.75;101879.91;4980606;28;20034;-36
2022/05/17 01:10:15;;;;;;;7.20;1.95;;;;;;;15.68;76.90;101888.19;4997963;28;20027;-36
2022/05/17 01:12:41;;;;;;;9.75;2.50;;;;;;;15.64;77.04;101876.88;4999160;28;20034;-34
2022/05/17 01:15:07;;;;;;;10.18;2.20;;;;;;;15.63;77.27;101885.19;4981871;28;20051;-35
2022/05/17 01:17:35;;;;;;;9.55;2.03;;;;;;;15.62;77.26;101883.53;4998624;28;20045;-36
2022/05/17 01:20:03;;;;;;;9.85;1.75;;;;;;;15.61;77.28;101876.41;4981393;28;20037;-36
2022/05/17 01:22:28;;;;;;;;;;;;;;;15.58;77.48;101875.75;4999094;28;20071;-35
2022/05/17 01:24:54;;;;;;;4.68;1.70;;;;;;;15.56;77.70;101891.41;4999051;28;19985;-34
2022/05/17 01:27:32;;;;;;;5.93;1.95;;;;;;;15.52;77.88;101890.06;4999073;28;20041;-36
2022/05/17 01:29:57;;;;;;;12.48;2.00;;;;;;;15.50;77.93;101889.41;4998422;28;20026;-36
2022/05/17 01:32:23;;;;;;;7.55;1.63;;;;;;;15.47;78.10;101887.09;4998619;28;20018;-37
2022/05/17 01:34:48;;;;;;;5.72;2.17;;;;;;;15.44;78.22;101887.47;4998099;28;20185;-35
2022/05/17 01:37:14;;;;;;;6.43;1.92;;;;;;;15.42;78.58;101891.41;4998155;28;20026;-36
2022/05/17 01:39:40;;;;;;;7.65;2.05;;;;;;;15.40;78.57;101893.47;4998258;28;20057;-35
2022/05/17 01:42:06;;;;;;;6.43;1.90;;;;;;;15.37;78.52;101889.25;4996658;28;20038;-34
2022/05/17 01:44:32;;;;;;;8.30;2.00;;;;;;;15.32;79.08;101883.53;4998529;28;20034;-37
2022/05/17 01:46:57;;;;;;;4.72;1.80;;;;;;;15.27;79.50;101880.53;4980803;28;20026;-35
2022/05/17 01:49:22;;;;;;;10.32;2.60;;;;;;;15.24;79.58;101886.34;4998806;28;20039;-35
2022/05/17 01:51:47;;;;;;;6.90;2.10;;;;;;;15.22;79.79;101888.41;4998632;28;20029;-36
2022/05/17 01:54:13;;;;;;;9.73;2.40;;;;;;;15.19;79.85;101883.34;4998427;28;20042;-35
2022/05/17 01:56:39;;;;;;;10.00;2.42;;;;;;;15.18;79.89;101889.81;4998597;28;20265;-34
2022/05/17 01:59:05;;;;;;;6.93;2.15;;;;;;;15.20;79.93;101890.47;4997482;28;20023;-35
2022/05/17 02:01:30;;;;;;;7.90;3.05;;;;;;;15.20;80.10;101887.78;4997900;28;20043;-33
2022/05/17 02:03:56;;;;;;;9.27;2.42;;;;;;;15.19;80.13;101895.03;4997748;28;20023;-34
2022/05/17 02:06:22;;;;;;;11.07;2.63;;;;;;;15.20;80.12;101893.19;4997831;28;20054;-35
2022/05/17 02:08:48;;;;;;;11.00;2.80;;;;;;;15.19;80.27;101895.03;4997737;28;20170;-35
2022/05/17 02:11:13;;;;;;;8.27;2.25;;;;;;;15.23;80.27;101895.53;4997675;28;20042;-34
2022/05/17 02:13:38;;;;;;;6.45;2.20;;;;;;;15.25;80.19;101888.91;4998226;28;20019;-34
2022/05/17 02:16:05;;;;;;;4.93;2.28;;;;;;;15.27;80.06;101896.81;4998094;28;20015;-36
2022/05/17 02:18:30;;;;;;;9.73;2.40;;;;;;;15.28;80.20;101896.66;4997678;28;20023;-35
2022/05/17 02:20:55;;;;;;;14.00;2.72;;;;;;;15.27;79.96;101896.81;4997946;28;20033;-35
2022/05/17 02:23:21;;;;;;;10.75;2.55;;;;;;;15.26;79.89;101900.56;4997453;28;20050;-34
2022/05/17 02:25:46;;;;;;;10.65;3.00;;;;;;;15.24;80.20;101891.78;4998324;28;20043;-35
2022/05/17 02:28:12;;;;;;;9.82;2.95;;;;;;;15.23;80.11;101892.81;4980733;28;20027;-34
2022/05/17 02:30:39;;;;;;;8.65;2.40;;;;;;;15.24;80.14;101891.78;4996403;28;20031;-35
2022/05/17 02:33:06;;;;;;;11.45;2.47;;;;;;;15.27;80.22;101896.81;4997817;28;20086;-34
2022/05/17 02:35:31;;;;;;;11.38;2.50;;;;;;;15.27;80.06;101899.53;4997338;28;20055;-35
2022/05/17 02:37:56;;;;;;;12.45;2.58;;;;;;;15.26;80.38;101900.56;4980420;28;20035;-34
2022/05/17 02:40:22;;;;;;;9.93;2.03;;;;;;;15.27;80.10;101902.25;4997152;28;20034;-34
2022/05/17 02:42:47;;;;;;;7.43;2.60;;;;;;;15.29;80.06;101900.19;4997176;28;20041;-34
2022/05/17 02:45:12;;;;;;;7.90;2.15;;;;;;;15.33;80.19;101896.09;4997215;28;20056;-36
2022/05/17 02:47:38;;;;;;;11.27;2.50;;;;;;;15.32;80.01;101899.81;4996833;28;20505;-36
2022/05/17 02:50:04;;;;;;;5.80;2.35;;;;;;;15.31;80.21;101903.56;4997150;28;20019;-35
2022/05/17 02:52:29;;;;;;;6.70;2.03;;;;;;;15.28;80.42;101904.78;4996877;28;20061;-33
2022/05/17 02:54:55;;;;;;;5.95;2.33;;;;;;;15.26;80.34;101901.41;4988608;28;20015;-37
2022/05/17 02:57:20;;;;;;;11.27;2.90;;;;;;;15.25;80.58;101912.47;4996060;28;20050;-34
2022/05/17 02:59:45;;;;;;;8.82;2.92;;;;;;;15.23;80.77;101901.78;4996183;28;20111;-36
2022/05/17 03:02:11;;;;;;;9.82;2.60;;;;;;;15.23;80.62;101901.78;4996433;28;20029;-35
2022/05/17 03:04:36;;;;;;;7.88;2.33;;;;;;;15.27;80.36;101902.25;4996686;28;20034;-35
2022/05/17 03:07:01;;;;;;;8.52;2.30;;;;;;;15.32;80.21;101899.81;4995842;28;20062;-35
2022/05/17 03:09:27;;;;;;;6.90;2.20;;;;;;;15.43;80.06;101899.38;4996201;28;20038;-35
2022/05/17 03:11:52;;;;;;;12.55;2.70;;;;;;;15.49;79.63;101898.59;4995446;28;20030;-36
2022/05/17 03:14:17;;;;;;;6.65;2.03;;;;;;;15.57;79.32;101900.38;4995826;28;20035;-35
2022/05/17 03:16:43;;;;;;;10.32;2.50;;;;;;;15.60;79.13;101900.00;4996351;28;20035;-36
2022/05/17 03:19:10;;;;;;;13.07;2.53;;;;;;;15.62;79.20;101902.53;4996483;28;20062;-36
2022/05/17 03:21:35;;;;;;;12.82;2.40;;;;;;;15.63;78.78;101913.19;4995751;28;20035;-35
2022/05/17 03:24:01;;;;;;;8.65;2.10;;;;;;;15.58;78.85;101921.88;4996403;28;20022;-34
2022/05/17 03:26:26;;;;;;;7.10;2.28;;;;;;;15.58;78.49;101927.31;4996521;28;20042;-36
2022/05/17 03:28:52;;;;;;;7.97;2.25;;;;;;;15.58;78.90;101921.88;4996835;28;20118;-35
2022/05/17 03:31:18;;;;;;;8.85;2.00;;;;;;;15.57;78.84;101927.50;4994720;28;20099;-33
2022/05/17 03:33:43;;;;;;;9.73;2.08;;;;;;;15.58;78.78;101921.03;4995579;28;20027;-36
2022/05/17 03:36:09;;;;;;;8.93;2.10;;;;;;;15.58;78.76;101929.19;4995561;28;20066;-34
2022/05/17 03:38:35;;;;;;;9.27;2.15;;;;;;;15.57;78.76;101924.78;4995160;28;20023;-34
2022/05/17 03:41:01;;;;;;;8.57;2.13;;;;;;;15.53;79.03;101932.47;4996203;28;20065;-36
2022/05/17 03:43:27;;;;;;;10.60;2.40;;;;;;;15.54;78.80;101939.56;4995662;28;20027;-34
2022/05/17 03:45:53;;;;;;;8.27;2.13;;;;;;;15.55;79.07;101943.97;4995990;28;20055;-34
2022/05/17 03:48:19;;;;;;;9.27;2.30;;;;;;;15.55;78.44;101943.97;4995958;28;20038;-34
2022/05/17 03:50:45;;;;;;;13.52;2.42;;;;;;;15.57;78.25;101949.22;4978612;28;20022;-36
2022/05/17 03:53:10;;;;;;;6.47;1.73;;;;;;;15.57;78.16;101952.75;4995210;28;20027;-35
2022/05/17 03:55:36;;;;;;;13.05;2.10;;;;;;;15.56;78.12;101956.53;4996056;28;20031;-34
2022/05/17 03:58:01;;;;;;;9.40;2.30;;;;;;;15.59;78.44;101956.13;4996129;28;20099;-36
2022/05/17 04:00:26;;;;;;;9.50;2.30;;;;;;;15.61;78.40;101957.81;4995428;28;20110;-36
2022/05/17 04:02:52;;;;;;;8.23;2.33;;;;;;;15.64;78.47;101960.13;4995405;28;20059;-34
2022/05/17 04:05:17;;;;;;;5.90;1.80;;;;;;;15.65;78.39;101951.81;4994737;28;20042;-36
2022/05/17 04:07:43;;;;;;;9.50;2.20;;;;;;;15.69;78.44;101960.44;4996211;28;20039;-34
2022/05/17 04:10:10;;;;;;;11.63;3.00;;;;;;;15.70;78.33;101960.28;4996147;28;20070;-33
2022/05/17 04:12:36;;;;;;;8.80;2.05;;;;;;;15.72;78.51;101960.09;4996086;28;20061;-35
2022/05/17 04:15:02;;;;;;;10.50;2.22;;;;;;;15.72;78.30;101960.09;4995997;28;20034;-34
2022/05/17 04:17:28;;;;;;;8.52;2.20;;;;;;;15.72;78.28;101962.81;4995868;28;20034;-34
2022/05/17 04:19:53;;;;;;;15.82;2.30;;;;;;;15.72;78.15;101965.53;4994925;28;20102;-34
2022/05/17 04:22:18;;;;;;;13.80;2.38;;;;;;;15.74;78.41;101966.16;4995644;28;20022;-35
2022/05/17 04:24:45;;;;;;;11.52;2.40;;;;;;;15.78;78.28;101964.75;4995393;28;20042;-35
2022/05/17 04:27:12;;;;;;;12.15;2.40;;;;;;;15.77;77.96;101973.91;4995615;28;20041;-35
2022/05/17 04:29:37;;;;;;;13.38;3.42;;;;;;;15.77;78.12;101973.91;4994970;28;21135;-34
2022/05/17 04:32:03;;;;;;;9.98;3.45;;;;;;;15.80;78.08;101979.00;4994233;28;20023;-34
2022/05/17 04:34:29;;;;;;;9.68;3.22;;;;;;;15.85;77.85;101970.25;4993737;28;20046;-35
2022/05/17 04:36:54;;;;;;;12.00;2.65;;;;;;;15.87;77.60;101973.63;4994927;28;20054;-34
2022/05/17 04:39:20;;;;;;;11.07;3.15;;;;;;;15.90;77.66;101971.38;4994858;28;20039;-37
2022/05/17 04:41:46;;;;;;;12.63;2.72;;;;;;;15.95;77.37;101968.94;4994649;28;20034;-35
2022/05/17 04:44:11;;;;;;;13.90;2.53;;;;;;;15.96;76.95;101967.91;4994821;28;20027;-33
2022/05/17 04:46:36;;;;;;;10.43;2.50;;;;;;;15.94;76.20;101977.28;4995148;28;20038;-36
2022/05/17 04:49:02;;;;;;;13.27;2.60;;;;;;;15.96;75.67;101984.22;4994847;28;20023;-36
2022/05/17 04:51:27;;;;;;;16.45;3.35;;;;;;;15.98;75.33;101982.16;4993859;28;20026;-34
2022/05/17 04:53:52;;;;;;;12.43;2.55;;;;;;;16.00;75.32;101990.09;4994943;28;20221;-35
2022/05/17 04:56:19;;;;;;;11.95;2.55;;;;;;;16.02;76.26;101994.31;4994291;28;20026;-34
2022/05/17 04:58:44;;;;;;;12.90;2.30;;;;;;;16.05;76.94;101992.25;4995159;28;20031;-36
2022/05/17 05:01:09;;;;;;;14.88;2.78;;;;;;;16.07;75.81;101988.31;4994030;28;20026;-34
2022/05/17 05:03:35;;;;;;;14.68;2.90;;;;;;;16.02;75.69;101988.88;4994329;28;20051;-34
2022/05/17 05:06:00;;;;;;;12.82;2.00;;;;;;;16.00;74.11;101995.53;4995273;28;20030;-35
2022/05/17 05:08:26;;;;;;;19.10;2.88;;;;;;;15.98;73.85;101986.72;4995533;28;20053;-36
2022/05/17 05:10:51;;;;;;;13.82;2.75;;;;;;;16.00;74.26;101996.34;4994134;28;20023;-37
2022/05/17 05:13:19;;;;;;;14.32;2.40;;;;;;;15.94;73.54;101990.88;4995338;28;20039;-34
2022/05/17 05:15:44;;;;;;;10.60;2.15;;;;;;;15.96;73.74;101995.06;4995600;28;20027;-34
2022/05/17 05:18:10;;;;;;;14.40;2.25;;;;;;;15.97;74.04;101995.91;4999127;28;20133;-34
2022/05/17 05:20:36;;;;;;;9.00;1.98;;;;;;;15.99;74.08;102002.84;4998138;28;20014;-36
2022/05/17 05:23:02;;;;;;;16.08;2.72;;;;;;;16.00;73.46;101993.66;4998453;28;20058;-36
2022/05/17 05:25:28;;;;;;;11.50;2.22;;;;;;;16.02;75.35;102005.16;4997461;28;20057;-34
2022/05/17 05:27:54;;;;;;;9.00;2.22;;;;;;;15.98;76.26;102003.00;4998312;28;20078;-36
2022/05/17 05:30:19;;;;;;;8.00;2.00;;;;;;;15.92;76.27;101998.34;4998929;28;20022;-35
2022/05/17 05:32:46;;;;;;;13.50;2.63;;;;;;;15.91;76.95;102002.94;4998230;28;20045;-34
2022/05/17 05:35:14;;;;;;;15.75;2.45;;;;;;;15.89;77.90;102010.44;4997588;28;20074;-35
2022/05/17 05:37:39;;;;;;;12.88;2.22;;;;;;;15.86;77.85;102004.53;4998924;28;20046;-35
2022/05/17 05:40:06;;;;;;;12.82;2.63;;;;;;;15.85;79.22;102002.84;4999058;28;20031;-37
2022/05/17 05:42:31;;;;;;;11.20;2.50;;;;;;;15.77;79.21;102001.06;4997592;28;20051;-36
2022/05/17 05:44:56;;;;;;;14.43;3.17;;;;;;;15.72;79.80;101992.66;4996348;28;20039;-34
2022/05/17 05:47:22;;;;;;;14.05;2.42;;;;;;;15.66;81.35;101993.38;4982790;28;20047;-30
2022/05/17 05:49:47;;;;;;;13.02;2.35;;;;;;;15.59;80.97;101988.69;4984860;28;20039;-38
2022/05/17 05:52:12;;;;;;;15.95;2.90;;;;;;;15.57;81.20;101989.91;4984795;28;20037;-38
2022/05/17 05:54:38;;;;;;;14.40;2.50;;;;;;;15.61;80.88;101993.09;4987406;28;20035;-37
2022/05/17 05:57:03;;;;;;;18.30;3.38;;;;;;;15.60;81.20;101989.53;4993966;28;20029;-35
2022/05/17 05:59:29;;;;;;;13.43;2.90;;;;;;;15.61;81.62;101984.94;4994018;28;20015;-38
2022/05/17 06:01:55;;;;;;;15.80;3.00;;;;;;;15.58;81.92;101989.72;4993590;28;20031;-34
2022/05/17 06:04:21;;;;;;;13.02;2.80;;;;;;;15.58;82.78;101992.44;4995342;28;20046;-33
2022/05/17 06:06:46;;;;;;;12.80;2.80;;;;;;;15.62;83.34;101986.66;4995018;28;20035;-33
2022/05/17 06:09:11;;;;;;;11.20;3.30;;;;;;;15.61;83.49;101988.50;4977787;28;20027;-36
2022/05/17 06:11:37;;;;;;;12.40;2.88;;;;;;;15.62;84.20;101990.19;4994261;28;20062;-36
2022/05/17 06:14:02;;;;;;;14.63;3.40;;;;;;;15.63;84.69;101988.31;4994232;28;20029;-33
2022/05/17 06:16:27;;;;;;;19.45;3.85;;;;;;;15.61;85.00;101995.81;4976647;28;20039;-33
2022/05/17 06:18:53;;;;;;;20.58;3.85;;;;;;;15.63;85.75;102005.44;4993413;28;20030;-33
2022/05/17 06:21:18;;;;;;;15.65;3.42;;;;;;;15.68;86.35;101996.75;4975837;28;20054;-33
2022/05/17 06:23:43;;;;;;;17.60;3.95;;;;;;;15.70;86.98;102001.00;4976979;28;20095;-35
2022/05/17 06:26:09;;;;;;;9.38;3.45;;;;;;;15.77;86.32;101996.50;4993460;28;20031;-36
2022/05/17 06:28:34;;;;;;;15.15;3.80;;;;;;;15.81;86.40;102002.38;4990934;28;20478;-34
2022/05/17 06:31:00;;;;;;;12.20;3.80;;;;;;;15.84;86.25;102002.00;4994482;28;20027;-36
2022/05/17 06:33:26;;;;;;;17.17;3.80;;;;;;;15.89;86.41;101996.84;4992693;28;20090;-32
2022/05/17 06:35:53;;;;;;;13.85;3.92;;;;;;;15.97;86.25;101996.75;4993046;28;20034;-36
2022/05/17 06:38:18;;;;;;;10.10;3.63;;;;;;;16.00;86.28;101990.94;4988142;28;20900;-34
2022/05/17 06:40:43;;;;;;;9.45;3.67;;;;;;;15.98;86.33;101992.16;4988339;28;20035;-34
2022/05/17 06:43:09;;;;;;;14.00;3.45;;;;;;;15.99;86.62;101989.25;4993179;28;20308;-34
2022/05/17 06:45:35;;;;;;;12.90;4.18;;;;;;;16.05;87.05;101975.94;4990696;28;20053;-37
2022/05/17 06:48:01;;;;;;;17.58;4.50;;;;;;;16.08;87.44;101975.56;4987969;28;20039;-38
2022/05/17 06:50:28;;;;;;;14.13;3.92;;;;;;;16.04;87.77;101974.28;4981552;28;20035;-39
2022/05/17 06:52:53;;;;;;;11.00;3.40;;;;;;;16.02;88.11;101980.72;4979780;28;20049;-35
2022/05/17 06:55:18;;;;;;;16.73;4.95;;;;;;;16.02;89.12;101982.59;4988705;28;20031;-37
2022/05/17 06:57:44;;;;;;;10.10;4.22;;;;;;;16.04;89.86;101988.69;4991315;28;20403;-35
2022/05/17 07:00:12;;;;;;;12.70;3.90;;;;;;;16.08;90.13;101989.97;4992986;28;20103;-36
2022/05/17 07:02:37;;;;;;;;;;;;;;;16.19;90.46;101997.66;4994439;28;20287;-35
2022/05/17 07:05:03;;;;;;;10.05;4.30;;;;;;;16.24;89.63;101999.78;4994857;28;19984;-34
2022/05/17 07:07:28;;;;;;;12.40;4.85;;;;;;;16.38;89.77;101998.06;4994859;28;20082;-34
2022/05/17 07:15:22;;;;;;;16.00;3.85;;;;;;;16.80;88.55;101997.28;4995166;28;20050;-36
2022/05/17 07:17:47;;;;;;;7.05;4.00;;;;;;;16.92;87.56;101996.75;4994634;28;20030;-36
2022/05/17 07:20:14;;;;;;;10.50;4.03;;;;;;;17.20;86.50;101991.34;4994982;28;20378;-34
2022/05/17 07:22:39;;;;;;;9.40;3.50;;;;;;;17.33;85.79;102002.31;4993087;28;20037;-36
2022/05/17 07:25:05;;;;;;;8.23;3.17;;;;;;;17.38;84.69;101998.97;4993886;28;20054;-32
2022/05/17 07:27:30;;;;;;;13.82;3.95;;;;;;;17.36;84.15;102007.34;4992370;28;20027;-33
2022/05/17 07:29:56;;;;;;;9.38;3.92;;;;;;;17.43;84.83;102002.81;4991221;28;20091;-34
2022/05/17 07:32:21;;;;;;;12.93;3.45;;;;;;;17.43;84.12;102013.69;4993708;28;20020;-34
2022/05/17 07:34:47;;;;;;;19.13;4.47;;;;;;;17.37;84.04;102010.91;4993992;28;20062;-34
2022/05/17 07:37:13;;;;;;;11.18;4.07;;;;;;;17.37;84.49;102014.47;4993116;28;20071;-33
2022/05/17 07:39:38;;;;;;;8.75;3.72;;;;;;;17.30;84.37;102017.16;4992495;28;20306;-34
2022/05/17 07:42:05;;;;;;;8.55;3.88;;;;;;;17.44;83.76;102014.53;4992542;28;20537;-34
2022/05/17 07:44:31;;;;;;;9.73;4.00;;;;;;;17.39;84.11;102017.00;4991813;28;20023;-35
2022/05/17 07:46:56;;;;;;;8.60;4.05;;;;;;;17.36;83.92;102014.69;4993690;28;20130;-34
2022/05/17 07:49:21;;;;;;;15.18;4.10;;;;;;;17.23;83.47;102018.97;4993002;28;20054;-34
2022/05/17 07:51:47;;;;;;;11.65;3.67;;;;;;;17.37;83.38;102021.78;4992297;28;20034;-35
2022/05/17 07:54:14;;;;;;;9.10;3.58;;;;;;;17.64;83.51;102022.81;4993272;28;20086;-37
2022/05/17 07:56:39;;;;;;;12.43;4.20;;;;;;;17.93;83.31;102027.19;4993433;28;20014;-35
2022/05/17 07:59:04;;;;;;;16.98;4.15;;;;;;;17.95;80.19;102028.66;4993875;28;20042;-34
2022/05/17 08:01:30;;;;;;;7.55;3.25;;;;;;;18.14;79.96;102027.09;4992843;28;20039;-36
2022/05/17 08:03:55;;;;;;;12.48;3.95;;;;;;;18.17;80.37;102039.47;4993138;28;20090;-35
2022/05/17 08:06:20;;;;;;;9.13;3.67;;;;;;;18.18;81.39;102039.25;4992962;28;20026;-35
2022/05/17 08:08:46;;;;;;;11.77;3.42;;;;;;;18.62;77.55;102029.75;4975186;28;20026;-34
2022/05/17 08:11:11;;;;;;;8.98;3.35;;;;;;;18.59;78.45;102026.63;4993444;28;20058;-34
2022/05/17 08:13:37;;;;;;;10.75;2.83;;;;;;;18.83;76.39;102019.75;4993476;28;20062;-33
2022/05/17 08:16:03;;;;;;;7.85;3.40;;;;;;;19.00;76.58;102020.19;4993274;28;20062;-36
2022/05/17 08:18:29;;;;;;;5.88;2.75;;;;;;;19.19;75.89;102021.22;4991518;28;20026;-33
2022/05/17 08:20:54;;;;;;;8.45;3.15;;;;;;;19.32;74.92;102018.50;4975211;28;20041;-33
2022/05/17 08:23:19;;;;;;;7.85;2.72;;;;;;;19.44;74.43;102019.53;4992540;28;20048;-35
2022/05/17 08:28:28;;;;;;;6.10;3.00;;;;;;;19.73;71.97;102009.22;4992219;28;20034;-35
2022/05/17 08:30:54;;;;;;;8.27;2.50;;;;;;;19.73;72.49;102006.47;4992945;28;20031;-34
2022/05/17 08:33:20;;;;;;;13.70;3.42;;;;;;;20.10;72.42;102017.69;4993134;28;20050;-33
2022/05/17 08:36:02;;;;;;;8.25;2.95;;;;;;;20.33;72.05;102009.81;4993697;28;20066;-33
2022/05/17 08:38:30;;;;;;;7.28;3.05;;;;;;;20.27;71.77;102009.84;4976637;28;20042;-33
2022/05/17 08:41:22;;;;;;;9.23;2.97;;;;;;;20.50;71.35;102017.50;4992397;28;20034;-33
2022/05/17 08:44:42;;;;;;;10.95;2.90;;;;;;;20.56;69.27;102022.09;4992544;28;20035;-34
2022/05/17 08:47:12;;;;;;;11.05;2.50;;;;;;;20.69;69.35;102021.19;4943067;29;20050;-32
2022/05/17 08:49:43;;;;;;;11.30;2.90;;;;;;;20.53;70.88;102022.53;4990739;28;20077;-35
2022/05/17 08:52:14;;;;;;;8.40;3.70;;;;;;;20.83;68.92;102023.63;4977724;28;20054;-33
2022/05/17 08:54:56;;;;;;;5.30;3.00;;;;;;;20.80;68.28;102010.41;4995840;28;20038;-32
2022/05/17 08:57:33;;;;;;;7.22;3.05;;;;;;;21.60;67.32;102019.81;4996971;28;20053;-32
2022/05/17 09:00:06;;;;;;;;;;;;;;;21.58;66.00;102021.94;4998385;28;20011;-35
2022/05/17 09:02:42;;;;;;;11.27;3.30;;;;;;;22.48;63.31;102022.13;4998300;28;19898;-32
2022/05/17 09:05:28;;;;;;;10.05;3.10;;;;;;;22.68;61.97;102010.88;4996400;28;20027;-32
2022/05/17 09:08:07;;;;;;;10.88;3.33;;;;;;;23.39;58.85;102011.00;4983076;28;20107;-33
2022/05/17 09:10:38;;;;;;;7.88;3.00;;;;;;;24.24;56.47;102004.84;4997378;28;20019;-32
2022/05/17 09:13:10;;;;;;;7.00;2.72;;;;;;;24.79;54.98;102008.09;4997933;28;20023;-34
2022/05/17 09:15:35;;;;;;;5.18;2.10;;;;;;;25.10;54.04;102004.75;4998063;28;20556;-34
2022/05/17 09:18:07;;;;;;;8.52;2.40;;;;;;;25.94;52.54;102014.81;4997998;28;20082;-34
2022/05/17 09:20:35;;;;;;;11.30;2.63;;;;;;;26.55;50.99;102011.13;4998693;28;20078;-34
2022/05/17 09:23:00;;;;;;;;;;;;;;;26.04;50.14;102014.97;4981438;28;20030;-35
2022/05/17 09:25:28;;;;;;;7.97;2.30;;;;;;;25.83;51.74;102008.31;4996820;28;19964;-33
2022/05/17 09:27:54;;;;;;;8.93;2.40;;;;;;;25.68;49.28;102015.56;4979742;28;20018;-35
2022/05/17 09:30:22;;;;;;;5.78;2.40;;;;;;;25.89;49.03;102012.00;4996080;28;20065;-34
2022/05/17 09:32:49;;;;;;;5.90;1.83;;;;;;;26.18;46.43;102015.38;4995687;28;20034;-35
2022/05/17 09:35:20;;;;;;;5.75;1.40;;;;;;;26.34;45.63;102015.56;4978696;28;20042;-33
2022/05/17 09:37:50;;;;;;;8.70;1.98;;;;;;;26.11;46.78;102013.91;4995732;28;20070;-33
2022/05/17 09:40:22;;;;;;;4.78;1.85;;;;;;;25.60;48.00;102019.59;4996019;28;20050;-33
2022/05/17 09:42:53;;;;;;;7.90;2.05;;;;;;;26.04;48.28;102014.09;4995361;28;20084;-35
2022/05/17 09:45:20;;;;;;;10.55;2.33;;;;;;;26.08;48.14;102014.44;4995716;28;20034;-35
2022/05/17 09:48:02;;;;;;;6.90;2.10;;;;;;;25.64;46.27;102012.47;4995843;28;20045;-34
2022/05/17 09:53:15;;;;;;;7.97;2.40;;;;;;;24.40;51.68;102007.91;4993762;28;20070;-34
2022/05/17 09:55:47;;;;;;;11.50;2.72;;;;;;;23.95;51.08;102000.41;4995222;28;20034;-36
2022/05/17 09:58:29;;;;;;;7.72;2.38;;;;;;;23.59;53.41;102010.59;4994601;28;20062;-34
2022/05/17 10:00:54;;;;;;;12.70;2.78;;;;;;;23.62;52.18;102001.91;4982538;28;20039;-34
2022/05/17 10:03:34;;;;;;;10.88;2.70;;;;;;;24.09;52.25;102005.41;4994274;28;20026;-36
2022/05/17 10:06:05;;;;;;;12.80;2.40;;;;;;;25.71;48.52;101991.06;4994942;28;20037;-35
2022/05/17 10:08:38;;;;;;;8.50;2.67;;;;;;;26.43;46.48;101995.50;4995815;28;20077;-35
2022/05/17 10:11:18;;;;;;;11.77;2.55;;;;;;;27.57;44.28;101993.41;4996002;28;20053;-34
2022/05/17 10:13:52;;;;;;;11.35;2.35;;;;;;;27.78;41.89;102002.63;4993204;28;20023;-34
2022/05/17 10:16:29;;;;;;;8.25;2.72;;;;;;;26.92;41.75;101994.59;4994106;28;20035;-35
2022/05/17 10:19:00;;;;;;;7.85;2.50;;;;;;;25.46;44.84;101997.06;4996031;28;20026;-34
2022/05/17 10:21:31;;;;;;;9.55;2.90;;;;;;;25.39;47.81;101988.13;4979812;28;20027;-34
2022/05/17 10:24:05;;;;;;;8.30;2.55;;;;;;;26.28;45.44;101974.09;4978911;28;20050;-34
2022/05/17 10:26:34;;;;;;;7.68;2.80;;;;;;;27.03;42.95;101976.16;4978433;28;20041;-36
2022/05/17 10:29:05;;;;;;;8.35;2.75;;;;;;;26.71;43.80;101975.09;4978637;28;20112;-33
2022/05/17 10:31:34;;;;;;;12.40;4.05;;;;;;;26.15;44.32;101981.97;4978643;28;20023;-37
2022/05/17 10:34:27;;;;;;;13.18;3.17;;;;;;;25.07;46.98;101972.22;4977515;28;20043;-35
2022/05/17 10:36:58;;;;;;;11.80;3.13;;;;;;;24.80;49.16;101966.53;4964966;28;20085;-36
2022/05/17 10:39:38;;;;;;;11.82;3.42;;;;;;;24.64;48.74;101970.09;4977252;28;20054;-35
2022/05/17 10:42:04;;;;;;;14.75;3.13;;;;;;;24.41;49.88;101960.03;4965451;28;20007;-35
2022/05/17 10:44:42;;;;;;;7.55;2.83;;;;;;;24.79;47.99;101959.34;4977733;28;20107;-34
2022/05/17 10:47:14;;;;;;;12.43;3.38;;;;;;;24.75;48.70;101959.03;4994282;28;20457;-36
2022/05/17 10:49:49;;;;;;;5.82;2.60;;;;;;;24.90;47.45;101957.59;4978512;28;20028;-35
2022/05/17 10:52:31;;;;;;;16.02;3.45;;;;;;;25.58;47.01;101948.16;4982425;28;20049;-37
2022/05/17 10:55:08;;;;;;;15.30;3.28;;;;;;;26.85;43.66;101958.06;5001123;28;20047;-36
2022/05/17 10:57:40;;;;;;;8.05;3.13;;;;;;;27.27;42.02;101960.88;4996522;28;20113;-37
2022/05/17 11:00:18;;;;;;;12.02;3.33;;;;;;;27.71;41.19;101949.50;4974220;28;20018;-35
2022/05/17 11:02:46;;;;;;;15.35;3.67;;;;;;;27.54;40.54;101959.91;5009535;28;20477;-37
2022/05/17 11:05:18;;;;;;;11.80;3.80;;;;;;;26.57;42.93;101957.31;5006160;28;20022;-34
2022/05/17 11:08:02;;;;;;;9.52;3.60;;;;;;;25.67;45.06;101953.22;4993929;28;20055;-35
2022/05/17 11:10:57;;;;;;;13.38;4.18;;;;;;;26.00;44.90;101953.09;4974017;28;20045;-35
2022/05/17 11:13:46;;;;;;;12.40;4.80;;;;;;;26.43;43.55;101931.19;4971701;28;20168;-35
2022/05/17 11:16:20;;;;;;;14.48;4.78;;;;;;;26.43;44.35;101934.75;4992166;28;20035;-36
2022/05/17 11:18:55;;;;;;;17.42;5.43;;;;;;;26.52;43.99;101950.91;4976624;28;20023;-35
2022/05/17 11:21:39;;;;;;;13.55;4.95;;;;;;;26.12;45.12;101930.03;4975964;28;20086;-33
2022/05/17 11:24:15;;;;;;;10.95;4.93;;;;;;;26.32;44.81;101927.50;4977002;28;20030;-36
2022/05/17 11:27:19;;;;;;;17.58;5.50;;;;;;;26.87;44.06;101931.84;4961577;28;20039;-36
2022/05/17 11:29:54;;;;;;;18.98;5.03;;;;;;;27.43;42.40;101914.78;4994602;28;20086;-33
2022/05/17 11:32:24;;;;;;;19.30;7.03;;;;;;;27.20;42.10;101920.75;4977360;28;20042;-36
2022/05/17 11:34:52;;;;;;;36.60;6.65;;;;;;;26.80;43.41;101917.44;4994499;28;20023;-35
2022/05/17 11:37:32;;;;;;;21.70;7.00;;;;;;;26.28;44.87;101916.16;4994084;28;20018;-36